ZUUUZUCK

Guest
Details From ZUUU - SHUANGLIU
To ZUCK - JIANGBEI
Flight Number -
Tags generated
Created
Modified
Stats Distance 152 nm / 281 km
Max Altitude 15,700 ft / 4,785 m
Waypoints 3
Social Downloads 18
Likes 0
Share VATSIM

Download

Looking for another format? Having issues loading an existing format? Contact us
Advertisement - Login to hide

Notes

Basic altitude profile: - Ascent Rate: 2500ft/min - Ascent Speed: 250kts - Cruise Altitude: 35000ft - Cruise Speed: 420kts - Descent Rate: 1500ft/min - Descent Speed: 250kts Options: - Use NATs: yes - Use PACOTS: yes - Use low airways: yes - Use high airways: yes

Route

ZUUU ZYG ZUCK

ID Type Via Altitude Latitude Longitude Leg Dist Tot Dist Heading (true) Name
O ZUUU APT - 0 ft / 0 m 30.57853˚ 103.94709˚ - 0 nm - SHUANGLIU
ZYG VOR - 15,700 ft / 4,785 m 30.11500˚ 104.67667˚ 46 nm 46 nm 126° / 127° ZIYANG VOR-DME
O ZUCK APT - 0 ft / 0 m 29.71922˚ 106.64168˚ 105 nm 151 nm 103° / 104° JIANGBEI

Altitude Profile

Advertisement - Login to hide

ZUUU

Details ICAO ZUUU (CTU)
Name SHUANGLIU
Region China
Timezone Asia/Chongqing (UTC+8.0)
Stats Elevation 1,625 ft / 495 m (AMSL)
Location 30.578528° 103.947086°
Runways 1
Magnetic Variation 1.981° W

METAR

ZUUU 171000Z 21002MPS 150V230 CAVOK 09/01 Q1031 NOSIG

Decode

TAF

Not found

Departure Runways

ID Width Length Bearing (true) Bearing (mag) Surface Threshold Offset Overrun Length
02 197 ft / 60 m 11,834 ft / 3,607 m 21.84° 23.82° Concrete 0 ft / 0 m 196 ft / 60 m
20 197 ft / 60 m 11,834 ft / 3,607 m 201.85° 203.83° Concrete 0 ft / 0 m 196 ft / 60 m

ZUCK

Details ICAO ZUCK (CKG)
Name JIANGBEI
Region China
Timezone Asia/Chongqing (UTC+8.0)
Stats Elevation 1,365 ft / 416 m (AMSL)
Location 29.719217° 106.641677°
Runways 1
Magnetic Variation 2.488° W

METAR

ZUCK 171000Z 17002MPS 3000 -RA BR FEW010 SCT030 OVC050 07/06 Q1031 BECMG 2500 -RA BR

Decode

TAF

Not found

Destination Runways

ID Width Length Bearing (true) Bearing (mag) Surface Threshold Offset Overrun Length
02 148 ft / 45 m 10,543 ft / 3,213 m 16.82° 19.31° Concrete 0 ft / 0 m 197 ft / 60 m
20 148 ft / 45 m 10,543 ft / 3,213 m 196.82° 199.31° Concrete 0 ft / 0 m 197 ft / 60 m

Approach Navaids

Runway Type Ident Frequency Range Bearing (true) Bearing (mag) Slope Elevation
02 Localiser IWX 109.70 MHz 18 nm / 33 km 16.82° 19.31° - 1,365 ft / 416 m (AMSL)
02 Glidescope IWX 109.70 MHz 10 nm / 19 km 16.82° 19.31° 3.00° 1,365 ft / 416 m (AMSL)
02 DME IWX 109.70 MHz 18 nm / 33 km - - - 1,365 ft / 416 m (AMSL)
20 Localiser IOS 108.10 MHz 18 nm / 33 km 196.82° 199.31° - 1,365 ft / 416 m (AMSL)
20 Glidescope IOS 108.10 MHz 10 nm / 19 km 196.82° 199.31° 3.00° 1,365 ft / 416 m (AMSL)

Popular Alternatives